PTSA/KSA METAR and TAF weather

Enter ICAO airport designator
Station Type Date Time Source
PTSA METAR 2018/12/17 01:50 UTC NOAA

PTSA 170150Z 04014KT 10SM SCT020 BKN130 OVC300 31/25 A2974


Station Type Date Time Source
PTSA Decoded METAR 2018/12/17 01:50 UTC NOAA

Kosrae Island, Kosrae Airport, Micronesia, Federated States of (PTSA) 05-21N 162-57E
Dec 16, 2018 - 08:50 PM EST / 2018.12.17 0150 UTC
Wind: from the NE (040 degrees) at 16 MPH (14 KT):0
Visibility: 10 mile(s):0
Sky conditions: overcast
Temperature: 87 F (31 C)
Heat index: 97.5 F (36.4 C):1
Dew Point: 77 F (25 C)
Relative Humidity: 70%
Pressure (altimeter): 29.74 in. Hg (1007 hPa)
ob: PTSA 170150Z 04014KT 10SM SCT020 BKN130 OVC300 31/25 A2974
cycle: 2

Station Type Date Time Source
PTSA TAF 2018/12/17 01:15 UTC NOAA

TAF PTSA 170103Z 1701/1724 06012KT P6SM VCSH SCT020 SCT040 BKN130
FM171400 09010KT P6SM VCSH FEW020 SCT035 BKN130
TEMPO 1718/1722 3SM SHRA BKN020 OVC035


Example: see airport list